createdAt,value
2019-01-16T00:02:35.630Z,35.23
2019-01-16T00:05:36.721Z,33.02
2019-01-16T00:08:17.228Z,29.42
2019-01-16T00:11:06.677Z,19.73
2019-01-16T00:13:59.313Z,20.12
2019-01-16T00:16:50.880Z,29.12
2019-01-16T00:19:43.772Z,34.95
2019-01-16T00:22:47.927Z,43.83
2019-01-16T00:25:50.133Z,28.50
2019-01-16T00:28:38.847Z,18.27
2019-01-16T00:31:24.332Z,17.27
2019-01-16T00:34:03.438Z,19.25
2019-01-16T00:37:00.610Z,21.42
2019-01-16T00:40:08.687Z,20.30
2019-01-16T00:42:59.986Z,21.33
2019-01-16T00:46:05.455Z,17.32
2019-01-16T00:48:55.463Z,14.53
2019-01-16T00:51:51.711Z,13.80
2019-01-16T00:54:54.188Z,14.30
2019-01-16T00:57:43.319Z,13.70
2019-01-16T01:00:34.824Z,13.40
2019-01-16T01:03:31.621Z,14.07
2019-01-16T01:06:24.981Z,13.08
2019-01-16T01:09:09.128Z,12.80
2019-01-16T01:11:58.300Z,13.18
2019-01-16T01:14:47.810Z,13.40
2019-01-16T01:17:50.274Z,13.32
2019-01-16T01:20:52.530Z,11.83
2019-01-16T01:23:48.649Z,12.18
2019-01-16T01:26:51.060Z,12.80
2019-01-16T01:29:33.357Z,13.83
2019-01-16T01:32:19.351Z,15.50
2019-01-16T01:35:09.562Z,14.18
2019-01-16T01:38:03.017Z,19.67
2019-01-16T01:41:05.459Z,22.58
2019-01-16T01:43:55.871Z,27.20
2019-01-16T01:46:52.001Z,27.02
2019-01-16T01:49:57.468Z,26.05
2019-01-16T01:52:50.608Z,25.12
2019-01-16T01:55:39.620Z,24.10
2019-01-16T01:58:36.116Z,24.00
2019-01-16T02:01:29.240Z,22.45
2019-01-16T02:04:18.399Z,23.45
2019-01-16T02:07:17.759Z,23.55
2019-01-16T02:10:06.456Z,23.75
2019-01-16T02:12:56.912Z,25.72
2019-01-16T02:15:50.135Z,25.50
2019-01-16T02:18:47.484Z,22.62
2019-01-16T02:21:42.641Z,22.40
2019-01-16T02:24:31.648Z,20.85
2019-01-16T02:27:20.611Z,19.20
2019-01-16T02:30:14.048Z,20.10
2019-01-16T02:33:02.979Z,19.85
2019-01-16T02:35:57.334Z,20.05
2019-01-16T02:38:46.495Z,20.45
2019-01-16T02:41:39.498Z,19.73
2019-01-16T02:44:38.783Z,18.95
2019-01-16T02:47:32.145Z,17.05
2019-01-16T02:50:37.748Z,17.12
2019-01-16T02:53:34.140Z,16.00
2019-01-16T02:56:26.979Z,16.12
2019-01-16T02:59:29.244Z,16.17
2019-01-16T03:02:16.556Z,29.25
2019-01-16T03:05:08.302Z,29.90
2019-01-16T03:08:10.760Z,17.02
2019-01-16T03:11:03.734Z,14.73
2019-01-16T03:13:53.677Z,14.00
2019-01-16T03:17:02.287Z,14.35
2019-01-16T03:19:40.949Z,15.13
2019-01-16T03:22:39.945Z,14.75
2019-01-16T03:25:30.029Z,15.50
2019-01-16T03:28:13.662Z,15.50
2019-01-16T03:31:07.282Z,15.68
2019-01-16T03:33:56.345Z,16.12
2019-01-16T03:36:45.320Z,15.48
2019-01-16T03:39:38.502Z,14.90
2019-01-16T03:42:34.479Z,15.28
2019-01-16T03:45:28.612Z,15.18
2019-01-16T03:48:17.624Z,14.47
2019-01-16T03:51:07.772Z,15.35
2019-01-16T03:53:57.869Z,16.52
2019-01-16T03:56:51.269Z,17.32
2019-01-16T03:59:47.083Z,15.75
2019-01-16T04:02:28.189Z,14.85
2019-01-16T04:05:17.135Z,12.95
2019-01-16T04:08:19.670Z,13.45
2019-01-16T04:11:25.065Z,18.92
2019-01-16T04:14:21.310Z,20.75
2019-01-16T04:17:14.323Z,16.07
2019-01-16T04:20:13.619Z,24.60
2019-01-16T04:22:58.491Z,24.52
2019-01-16T04:25:54.488Z,21.33
2019-01-16T04:28:35.935Z,18.80
2019-01-16T04:31:30.272Z,25.55
2019-01-16T04:34:23.406Z,52.50
2019-01-16T04:37:29.680Z,33.15
2019-01-16T04:40:22.516Z,16.73
2019-01-16T04:43:01.382Z,17.32
2019-01-16T04:45:51.459Z,17.95
2019-01-16T04:48:33.216Z,17.75
2019-01-16T04:51:23.398Z,17.07
2019-01-16T04:54:16.242Z,15.45
2019-01-16T04:56:57.734Z,19.07
2019-01-16T04:59:47.169Z,24.52
2019-01-16T05:02:40.039Z,23.40
2019-01-16T05:05:38.286Z,22.62
2019-01-16T05:08:31.351Z,22.10
2019-01-16T05:11:20.164Z,24.98
2019-01-16T05:14:02.730Z,24.67
2019-01-16T05:16:47.659Z,28.87
2019-01-16T05:19:38.786Z,29.35
2019-01-16T05:22:24.786Z,35.05
2019-01-16T05:25:30.242Z,31.55
2019-01-16T05:28:19.444Z,21.48
2019-01-16T05:31:08.355Z,18.20
2019-01-16T05:33:57.052Z,18.48
2019-01-16T05:36:45.889Z,15.53
2019-01-16T05:39:52.033Z,16.35
2019-01-16T05:42:57.226Z,17.15
2019-01-16T05:45:47.161Z,17.17
2019-01-16T05:48:40.462Z,20.85
2019-01-16T05:51:30.150Z,22.22
2019-01-16T05:54:23.804Z,26.85
2019-01-16T05:57:13.457Z,27.32
2019-01-16T05:59:56.005Z,31.00
2019-01-16T06:02:56.140Z,45.80
2019-01-16T06:06:02.291Z,68.07
2019-01-16T06:08:55.835Z,44.88
2019-01-16T06:11:58.890Z,75.62
2019-01-16T06:14:54.873Z,48.73
2019-01-16T06:17:45.434Z,33.25
2019-01-16T06:20:47.804Z,32.25
2019-01-16T06:23:50.213Z,35.98
2019-01-16T06:26:43.212Z,28.45
2019-01-16T06:29:32.873Z,27.13
2019-01-16T06:32:23.035Z,26.50
2019-01-16T06:35:19.034Z,25.43
2019-01-16T06:38:06.556Z,21.02
2019-01-16T06:40:55.594Z,22.95
2019-01-16T06:43:45.377Z,26.55
2019-01-16T06:46:55.676Z,21.62
2019-01-16T06:49:39.339Z,20.65
2019-01-16T06:52:38.600Z,20.15
2019-01-16T06:55:27.409Z,19.62
2019-01-16T06:58:15.134Z,21.70
2019-01-16T07:01:14.538Z,19.48
2019-01-16T07:04:09.948Z,19.07
2019-01-16T07:06:53.136Z,19.90
2019-01-16T07:09:43.320Z,18.07
2019-01-16T07:12:32.308Z,15.57
2019-01-16T07:15:25.568Z,12.53
2019-01-16T07:18:27.782Z,13.60
2019-01-16T07:21:18.565Z,11.77
2019-01-16T07:24:00.465Z,17.40
2019-01-16T07:27:05.857Z,17.53
2019-01-16T07:29:52.105Z,12.97
2019-01-16T07:32:40.778Z,8.37
2019-01-16T07:35:34.106Z,7.70
2019-01-16T07:38:24.046Z,5.60
2019-01-16T07:41:30.107Z,5.20
2019-01-16T07:44:26.354Z,5.40
2019-01-16T07:47:15.128Z,6.20
2019-01-16T07:50:17.132Z,18.20
2019-01-16T07:53:03.173Z,9.67
2019-01-16T07:55:56.209Z,8.83
2019-01-16T07:58:55.261Z,20.37
2019-01-16T08:01:45.453Z,24.43
2019-01-16T08:04:34.247Z,25.80
2019-01-16T08:07:27.317Z,25.73
2019-01-16T08:10:28.271Z,41.87
2019-01-16T08:13:17.286Z,21.50
2019-01-16T08:16:07.436Z,20.17
2019-01-16T08:18:55.955Z,18.60
2019-01-16T08:21:52.123Z,19.37
2019-01-16T08:24:58.186Z,19.17
2019-01-16T08:27:48.465Z,25.50
2019-01-16T08:30:37.067Z,15.63
2019-01-16T08:33:33.169Z,14.50
2019-01-16T08:36:42.174Z,18.37
2019-01-16T08:39:38.662Z,9.63
2019-01-16T08:42:27.656Z,21.93
2019-01-16T08:45:17.845Z,22.97
2019-01-16T08:48:20.258Z,11.47
2019-01-16T08:51:09.806Z,5.50
2019-01-16T08:54:04.571Z,7.17
2019-01-16T08:56:59.727Z,7.00
2019-01-16T08:59:56.183Z,5.80
2019-01-16T09:02:46.727Z,5.93
2019-01-16T09:05:39.727Z,6.20
2019-01-16T09:08:45.135Z,5.70
2019-01-16T09:11:33.938Z,3.50
2019-01-16T09:14:33.596Z,3.30
2019-01-16T09:17:42.403Z,3.77
2019-01-16T09:20:40.142Z,4.40
2019-01-16T09:23:25.567Z,5.00
2019-01-16T09:26:27.199Z,4.90
2019-01-16T09:29:15.969Z,4.37
2019-01-16T09:32:16.043Z,4.97
2019-01-16T09:35:04.694Z,4.60
2019-01-16T09:37:53.785Z,5.27
2019-01-16T09:40:52.882Z,5.00
2019-01-16T09:43:44.427Z,7.13
2019-01-16T09:46:41.193Z,9.77
2019-01-16T09:49:30.355Z,19.40
2019-01-16T09:52:21.324Z,12.43
2019-01-16T09:55:10.449Z,10.23
2019-01-16T09:58:06.224Z,10.10
2019-01-16T10:00:54.752Z,7.90
2019-01-16T10:03:53.960Z,9.00
2019-01-16T10:06:44.624Z,8.23
2019-01-16T10:09:33.630Z,7.43
2019-01-16T10:12:22.611Z,6.93
2019-01-16T10:15:11.781Z,8.20
2019-01-16T10:18:00.566Z,6.87
2019-01-16T10:20:55.577Z,9.50
2019-01-16T10:23:41.201Z,10.23
2019-01-16T10:26:46.752Z,7.40
2019-01-16T10:29:28.328Z,7.73
2019-01-16T10:32:34.683Z,6.77
2019-01-16T10:35:24.443Z,5.53
2019-01-16T10:38:23.168Z,4.77
2019-01-16T10:41:03.448Z,5.30
2019-01-16T10:43:57.454Z,7.43
2019-01-16T10:46:53.622Z,10.03
2019-01-16T10:49:35.943Z,12.73
2019-01-16T10:52:28.666Z,11.63
2019-01-16T10:55:10.785Z,4.83
2019-01-16T10:58:01.890Z,8.50
2019-01-16T11:00:49.506Z,8.37
2019-01-16T11:03:39.562Z,5.00
2019-01-16T11:06:55.411Z,5.10
2019-01-16T11:09:48.432Z,4.80
2019-01-16T11:12:44.938Z,10.83
2019-01-16T11:15:50.218Z,7.83
2019-01-16T11:18:39.368Z,5.73
2019-01-16T11:21:28.265Z,5.40
2019-01-16T11:24:24.322Z,8.97
2019-01-16T11:27:05.924Z,8.50
2019-01-16T11:30:11.883Z,8.60
2019-01-16T11:32:57.273Z,8.53
2019-01-16T11:35:43.651Z,7.90
2019-01-16T11:38:32.508Z,12.77
2019-01-16T11:41:25.663Z,8.90
2019-01-16T11:44:25.045Z,8.77
2019-01-16T11:47:33.396Z,15.67
2019-01-16T11:50:26.569Z,12.10
2019-01-16T11:53:16.302Z,10.25
2019-01-16T11:56:18.665Z,9.65
2019-01-16T11:59:26.170Z,10.65
2019-01-16T12:02:22.110Z,10.18
2019-01-16T12:05:14.926Z,12.07
2019-01-16T12:08:11.315Z,10.88
2019-01-16T12:11:00.197Z,11.43
2019-01-16T12:13:49.263Z,13.40
2019-01-16T12:16:51.395Z,10.32
2019-01-16T12:19:47.710Z,12.18
2019-01-16T12:22:40.598Z,17.87
2019-01-16T12:25:33.599Z,15.58
2019-01-16T12:28:27.657Z,9.80
2019-01-16T12:31:13.099Z,11.50
2019-01-16T12:34:12.363Z,14.05
2019-01-16T12:40:32.962Z,12.73
2019-01-16T12:43:21.833Z,6.55
2019-01-16T12:46:17.903Z,7.70
2019-01-16T12:49:13.797Z,8.38
2019-01-16T12:52:09.704Z,7.55
2019-01-16T12:55:00.480Z,12.82
2019-01-16T12:57:42.242Z,8.93
2019-01-16T13:00:32.500Z,8.33
2019-01-16T13:03:21.411Z,9.55
2019-01-16T13:06:08.978Z,10.38
2019-01-16T13:09:06.931Z,14.87
2019-01-16T13:12:00.227Z,6.53
2019-01-16T13:15:00.895Z,7.83
2019-01-16T13:17:54.702Z,7.17
2019-01-16T13:20:43.443Z,6.55
2019-01-16T13:23:36.507Z,6.92
2019-01-16T13:26:24.754Z,6.30
2019-01-16T13:32:11.149Z,7.37
2019-01-16T13:35:05.899Z,6.17
2019-01-16T13:38:05.571Z,6.60
2019-01-16T13:40:55.378Z,6.22
2019-01-16T13:43:37.304Z,7.72
2019-01-16T13:46:26.309Z,7.12
2019-01-16T13:49:15.421Z,6.65
2019-01-16T13:52:08.484Z,8.50
2019-01-16T13:55:14.059Z,8.20
2019-01-16T13:58:03.039Z,8.63
2019-01-16T14:00:54.452Z,9.15
2019-01-16T14:03:44.824Z,13.80
2019-01-16T14:06:34.122Z,7.92
2019-01-16T14:09:27.681Z,9.95
2019-01-16T14:12:17.819Z,8.80
2019-01-16T14:15:07.513Z,6.87
2019-01-16T14:17:50.162Z,7.50
2019-01-16T14:20:50.801Z,7.08
2019-01-16T14:23:52.828Z,14.93
2019-01-16T14:26:52.033Z,15.98
2019-01-16T14:29:41.205Z,8.85
2019-01-16T14:32:29.712Z,8.78
2019-01-16T14:35:22.142Z,10.82
2019-01-16T14:38:12.026Z,10.08
2019-01-16T14:41:14.664Z,10.03
2019-01-16T14:44:22.088Z,10.20
2019-01-16T14:47:11.207Z,8.05
2019-01-16T14:50:10.299Z,7.97
2019-01-16T14:52:52.587Z,9.48
2019-01-16T14:55:57.938Z,8.25
2019-01-16T14:58:48.348Z,8.80
2019-01-16T15:01:53.819Z,10.08
2019-01-16T15:04:52.905Z,11.20
2019-01-16T15:07:48.920Z,12.68
2019-01-16T15:10:37.320Z,12.75
2019-01-16T15:13:22.979Z,12.78
2019-01-16T15:16:28.154Z,13.48
2019-01-16T15:19:18.139Z,13.93
2019-01-16T15:22:07.364Z,12.53
2019-01-16T15:25:00.328Z,14.75
2019-01-16T15:27:44.656Z,14.18
2019-01-16T15:30:28.461Z,14.35
2019-01-16T15:33:21.944Z,17.57
2019-01-16T15:36:11.067Z,18.73
2019-01-16T15:39:05.617Z,19.87
2019-01-16T15:42:02.007Z,18.62
2019-01-16T15:45:07.366Z,17.70
2019-01-16T15:47:56.190Z,21.52
2019-01-16T15:50:46.421Z,18.80
2019-01-16T15:53:27.193Z,18.70
2019-01-16T15:56:18.617Z,22.55
2019-01-16T15:59:17.638Z,22.50
2019-01-16T16:02:07.973Z,20.37
2019-01-16T16:05:01.691Z,20.02
2019-01-16T16:07:48.804Z,19.23
2019-01-16T16:10:45.241Z,16.10
2019-01-16T16:13:44.638Z,15.20
2019-01-16T16:16:43.846Z,15.80
2019-01-16T16:19:32.406Z,16.05
2019-01-16T16:22:19.621Z,16.60
2019-01-16T16:25:15.268Z,17.25
2019-01-16T16:28:01.632Z,15.80
2019-01-16T16:30:50.693Z,13.83
2019-01-16T16:33:46.192Z,13.38
2019-01-16T16:36:39.434Z,12.85
2019-01-16T16:39:28.867Z,12.78
2019-01-16T16:42:25.193Z,12.30
2019-01-16T16:45:28.961Z,12.93
2019-01-16T16:48:19.694Z,13.70
2019-01-16T16:51:09.877Z,14.30
2019-01-16T16:53:58.412Z,12.30
2019-01-16T16:56:47.390Z,10.50
2019-01-16T16:59:36.899Z,9.35
2019-01-16T17:02:26.848Z,8.78
2019-01-16T17:05:15.971Z,8.60
2019-01-16T17:07:55.175Z,8.68
2019-01-16T17:10:48.628Z,9.83
2019-01-16T17:13:49.179Z,9.50
2019-01-16T17:16:48.688Z,10.35
2019-01-16T17:19:37.537Z,9.50
2019-01-16T17:22:32.244Z,9.35
2019-01-16T17:25:22.250Z,10.28
2019-01-16T17:28:11.369Z,10.58
2019-01-16T17:31:01.487Z,11.90
2019-01-16T17:33:51.640Z,12.55
2019-01-16T17:36:47.454Z,13.60
2019-01-16T17:39:36.329Z,13.83
2019-01-16T17:42:32.504Z,14.20
2019-01-16T17:45:44.205Z,13.22
2019-01-16T17:48:53.457Z,12.37
2019-01-16T17:51:42.505Z,11.03
2019-01-16T17:54:31.404Z,12.07
2019-01-16T17:57:17.526Z,12.18
2019-01-16T18:00:10.857Z,11.48
2019-01-16T18:03:04.260Z,12.63
2019-01-16T18:06:07.182Z,14.58
2019-01-16T18:08:59.964Z,14.73
2019-01-16T18:12:07.641Z,14.60
2019-01-16T18:15:10.181Z,14.33
2019-01-16T18:17:59.611Z,14.15
2019-01-16T18:20:55.654Z,13.03
2019-01-16T18:23:44.683Z,13.85
2019-01-16T18:26:46.904Z,12.60
2019-01-16T18:29:40.721Z,12.33
2019-01-16T18:32:37.351Z,13.10
2019-01-16T18:35:30.702Z,12.23
2019-01-16T18:38:26.703Z,11.57
2019-01-16T18:41:15.539Z,11.18
2019-01-16T18:44:05.497Z,10.43
2019-01-16T18:46:55.022Z,11.08
2019-01-16T18:50:09.945Z,20.20
2019-01-16T18:52:59.030Z,21.75
2019-01-16T18:55:44.019Z,21.07
2019-01-16T18:58:52.655Z,24.10
2019-01-16T19:01:33.697Z,30.60
2019-01-16T19:04:23.865Z,40.90
2019-01-16T19:07:13.957Z,21.93
2019-01-16T19:10:17.253Z,34.08
2019-01-16T19:13:10.380Z,36.15
2019-01-16T19:16:03.590Z,46.00
2019-01-16T19:18:47.074Z,42.70
2019-01-16T19:21:46.741Z,48.42
2019-01-16T19:24:26.647Z,52.33
2019-01-16T19:27:35.907Z,50.70
2019-01-16T19:30:44.193Z,52.27
2019-01-16T19:33:33.339Z,51.13
2019-01-16T19:36:23.349Z,48.10
2019-01-16T19:39:12.548Z,40.92
2019-01-16T19:42:02.891Z,20.95
2019-01-16T19:44:53.332Z,24.23
2019-01-16T19:47:49.541Z,20.40
2019-01-16T19:50:42.854Z,20.37
2019-01-16T19:53:39.455Z,18.10
2019-01-16T19:56:42.324Z,20.82
2019-01-16T19:59:31.464Z,20.52
2019-01-16T20:02:33.865Z,25.88
2019-01-16T20:05:20.643Z,29.90
2019-01-16T20:08:17.662Z,39.48
2019-01-16T20:11:01.985Z,42.58
2019-01-16T20:13:52.370Z,49.20
2019-01-16T20:16:41.182Z,53.85
2019-01-16T20:19:30.457Z,53.45
2019-01-16T20:22:23.668Z,64.00
2019-01-16T20:25:13.943Z,58.92
2019-01-16T20:28:04.143Z,56.45
2019-01-16T20:30:57.661Z,55.33
2019-01-16T20:33:54.430Z,55.30
2019-01-16T20:36:44.806Z,56.25
2019-01-16T20:39:41.186Z,55.12
2019-01-16T20:42:43.611Z,48.70
2019-01-16T20:45:29.888Z,47.78
2019-01-16T20:48:34.992Z,48.50
2019-01-16T20:51:31.313Z,43.65
2019-01-16T20:54:21.418Z,41.75
2019-01-16T20:57:15.253Z,32.30
2019-01-16T21:00:05.505Z,26.73
2019-01-16T21:02:59.876Z,39.08
2019-01-16T21:05:48.887Z,35.65
2019-01-16T21:08:32.128Z,39.92
2019-01-16T21:11:34.801Z,41.92
2019-01-16T21:14:27.482Z,44.40
2019-01-16T21:17:16.582Z,37.48
2019-01-16T21:20:16.302Z,38.00
2019-01-16T21:23:24.948Z,43.52
2019-01-16T21:26:16.340Z,56.95
2019-01-16T21:29:15.860Z,50.50
2019-01-16T21:31:59.821Z,47.45
2019-01-16T21:34:50.095Z,51.70
2019-01-16T21:37:40.325Z,55.12
2019-01-16T21:40:32.902Z,56.25
2019-01-16T21:43:22.965Z,51.60
2019-01-16T21:46:21.512Z,43.75
2019-01-16T21:49:10.864Z,48.68
2019-01-16T21:51:52.082Z,56.65
2019-01-16T21:54:51.424Z,53.58
2019-01-16T21:57:48.335Z,47.38
2019-01-16T22:00:35.090Z,45.55
2019-01-16T22:03:15.292Z,50.60
2019-01-16T22:06:17.531Z,45.85
2019-01-16T22:09:20.059Z,50.78
2019-01-16T22:12:12.208Z,57.27
2019-01-16T22:15:07.999Z,41.75
2019-01-16T22:17:58.038Z,43.52
2019-01-16T22:21:22.864Z,47.08
2019-01-16T22:24:13.234Z,51.37
2019-01-16T22:26:55.675Z,56.45
2019-01-16T22:29:50.392Z,56.02
2019-01-16T22:32:45.167Z,56.02
2019-01-16T22:35:34.156Z,47.33
2019-01-16T22:38:24.937Z,47.15
2019-01-16T22:41:15.151Z,52.23
2019-01-16T22:43:54.616Z,48.60
2019-01-16T22:46:33.102Z,48.98
2019-01-16T22:49:19.026Z,50.03
2019-01-16T22:52:14.209Z,51.75
2019-01-16T22:55:02.301Z,52.45
2019-01-16T22:57:42.875Z,52.13
2019-01-16T23:00:40.271Z,56.55
2019-01-16T23:03:47.205Z,58.05
2019-01-16T23:06:46.659Z,60.70
2019-01-16T23:09:45.422Z,62.50
2019-01-16T23:12:36.038Z,72.80
2019-01-16T23:15:43.576Z,92.75
2019-01-16T23:18:38.477Z,90.35
2019-01-16T23:21:37.862Z,88.72
2019-01-16T23:24:31.762Z,74.95
2019-01-16T23:27:26.452Z,68.92
2019-01-16T23:30:23.044Z,66.42
2019-01-16T23:33:13.408Z,65.08
2019-01-16T23:36:15.964Z,64.32
2019-01-16T23:39:18.527Z,67.40
2019-01-16T23:42:07.315Z,65.05
2019-01-16T23:44:57.213Z,68.55
2019-01-16T23:47:50.321Z,67.97
2019-01-16T23:50:36.160Z,70.05
2019-01-16T23:53:28.974Z,68.92
2019-01-16T23:56:17.999Z,66.20
2019-01-16T23:59:08.061Z,66.20
